createdAt,value
2018-05-01T00:00:18.479Z,90.30
2018-05-01T00:02:46.818Z,90.10
2018-05-01T00:05:15.871Z,90.40
2018-05-01T00:07:44.187Z,90.40
2018-05-01T00:10:13.285Z,90.80
2018-05-01T00:12:42.368Z,91.10
2018-05-01T00:15:12.996Z,90.40
2018-05-01T00:17:41.279Z,90.30
2018-05-01T00:20:10.363Z,90.60
2018-05-01T00:22:38.688Z,90.60
2018-05-01T00:25:06.979Z,90.70
2018-05-01T00:27:35.271Z,90.90
2018-05-01T00:30:03.592Z,91.00
2018-05-01T00:32:32.640Z,91.40
2018-05-01T00:35:00.928Z,91.30
2018-05-01T00:37:29.228Z,91.60
2018-05-01T00:39:58.279Z,91.90
2018-05-01T00:42:26.608Z,91.90
2018-05-01T00:44:55.691Z,91.80
2018-05-01T00:47:24.759Z,91.80
2018-05-01T00:49:53.035Z,91.70
2018-05-01T00:52:33.234Z,91.60
2018-05-01T00:55:02.299Z,91.70
2018-05-01T00:57:31.338Z,91.60
2018-05-01T01:00:00.375Z,91.60
2018-05-01T01:02:28.636Z,91.50
2018-05-01T01:04:56.947Z,91.70
2018-05-01T01:07:25.352Z,91.70
2018-05-01T01:09:53.653Z,91.70
2018-05-01T01:12:21.934Z,91.70
2018-05-01T01:14:50.220Z,91.70
2018-05-01T01:17:18.508Z,91.90
2018-05-01T01:19:46.800Z,91.70
2018-05-01T01:22:15.076Z,91.60
2018-05-01T01:24:43.375Z,91.80
2018-05-01T01:27:12.416Z,91.50
2018-05-01T01:29:40.711Z,91.50
2018-05-01T01:32:14.363Z,91.20
2018-05-01T01:34:44.326Z,91.50
2018-05-01T01:37:12.139Z,91.40
2018-05-01T01:39:40.708Z,91.60
2018-05-01T01:42:08.477Z,91.60
2018-05-01T01:44:36.298Z,91.70
2018-05-01T01:47:04.091Z,91.90
2018-05-01T01:49:32.153Z,92.10
2018-05-01T01:51:59.953Z,92.10
2018-05-01T01:54:27.827Z,91.90
2018-05-01T01:56:56.376Z,91.70
2018-05-01T01:59:24.180Z,91.70
2018-05-01T02:01:52.724Z,91.80
2018-05-01T02:04:20.519Z,91.80
2018-05-01T02:06:49.061Z,92.00
2018-05-01T02:09:16.856Z,92.00
2018-05-01T02:11:45.404Z,92.00
2018-05-01T02:14:13.207Z,92.00
2018-05-01T02:16:41.379Z,92.10
2018-05-01T02:19:09.941Z,92.00
2018-05-01T02:21:38.542Z,91.90
2018-05-01T02:24:07.083Z,91.90
2018-05-01T02:26:35.672Z,91.60
2018-05-01T02:29:03.478Z,91.50
2018-05-01T02:31:32.024Z,91.30
2018-05-01T02:33:59.854Z,91.20
2018-05-01T02:36:27.636Z,91.20
2018-05-01T02:38:56.579Z,91.10
2018-05-01T02:41:25.134Z,91.50
2018-05-01T02:43:52.953Z,91.50
2018-05-01T02:46:20.726Z,91.70
2018-05-01T02:48:50.111Z,91.90
2018-05-01T02:51:17.939Z,91.90
2018-05-01T02:53:51.869Z,92.40
2018-05-01T02:56:19.679Z,92.20
2018-05-01T02:58:47.484Z,91.70
2018-05-01T03:01:15.274Z,91.60
2018-05-01T03:03:43.900Z,91.90
2018-05-01T03:06:11.692Z,91.80
2018-05-01T03:08:39.491Z,92.20
2018-05-01T03:11:07.291Z,92.00
2018-05-01T03:13:35.112Z,91.90
2018-05-01T03:16:03.697Z,91.90
2018-05-01T03:18:32.251Z,91.90
2018-05-01T03:21:00.039Z,91.90
2018-05-01T03:23:28.695Z,92.20
2018-05-01T03:25:56.516Z,92.20
2018-05-01T03:28:24.380Z,92.50
2018-05-01T03:30:52.196Z,92.80
2018-05-01T03:33:20.077Z,92.80
2018-05-01T03:35:47.899Z,93.10
2018-05-01T03:38:15.763Z,93.00
2018-05-01T03:40:43.539Z,93.20
2018-05-01T03:43:11.379Z,93.30
2018-05-01T03:45:39.322Z,93.30
2018-05-01T03:48:07.202Z,93.60
2018-05-01T03:50:34.988Z,93.70
2018-05-01T03:53:02.920Z,93.90
2018-05-01T03:55:31.522Z,94.40
2018-05-01T03:57:59.373Z,94.30
2018-05-01T04:00:27.965Z,94.80
2018-05-01T04:02:55.835Z,94.70
2018-05-01T04:05:23.809Z,95.00
2018-05-01T04:07:51.631Z,95.20
2018-05-01T04:10:19.444Z,95.60
2018-05-01T04:12:47.353Z,96.20
2018-05-01T04:15:15.168Z,96.50
2018-05-01T04:17:42.995Z,96.60
2018-05-01T04:20:11.612Z,97.00
2018-05-01T04:22:39.360Z,97.00
2018-05-01T04:25:07.146Z,96.80
2018-05-01T04:27:34.936Z,96.80
2018-05-01T04:30:02.748Z,96.80
2018-05-01T04:32:30.603Z,97.20
2018-05-01T04:34:59.879Z,97.20
2018-05-01T04:37:27.775Z,97.20
2018-05-01T04:39:56.363Z,97.20
2018-05-01T04:42:24.195Z,97.20
2018-05-01T04:44:52.067Z,96.60
2018-05-01T04:47:19.923Z,96.50
2018-05-01T04:49:47.711Z,96.50
2018-05-01T04:52:15.568Z,96.40
2018-05-01T04:54:43.379Z,96.60
2018-05-01T04:57:12.007Z,96.10
2018-05-01T04:59:39.802Z,96.10
2018-05-01T05:02:07.602Z,96.00
2018-05-01T05:04:35.427Z,96.20
2018-05-01T05:07:03.265Z,96.20
2018-05-01T05:09:31.127Z,96.10
2018-05-01T05:11:58.839Z,95.60
2018-05-01T05:14:27.426Z,95.10
2018-05-01T05:16:55.211Z,95.10
2018-05-01T05:19:23.027Z,95.30
2018-05-01T05:21:51.643Z,94.90
2018-05-01T05:24:19.419Z,94.80
2018-05-01T05:26:47.241Z,95.10
2018-05-01T05:29:15.977Z,94.90
2018-05-01T05:31:43.783Z,94.80
2018-05-01T05:34:11.591Z,94.80
2018-05-01T05:36:40.135Z,94.60
2018-05-01T05:39:07.958Z,94.60
2018-05-01T05:41:35.754Z,94.90
2018-05-01T05:44:03.560Z,94.70
2018-05-01T05:46:31.351Z,94.60
2018-05-01T05:48:59.168Z,94.40
2018-05-01T05:51:26.953Z,94.40
2018-05-01T05:53:55.530Z,94.50
2018-05-01T05:56:23.303Z,94.50
2018-05-01T05:58:51.850Z,95.20
2018-05-01T06:01:19.679Z,95.20
2018-05-01T06:03:47.475Z,95.00
2018-05-01T06:06:15.343Z,95.20
2018-05-01T06:08:43.168Z,94.80
2018-05-01T06:11:10.983Z,94.50
2018-05-01T06:13:38.883Z,94.20
2018-05-01T06:16:06.607Z,94.30
2018-05-01T06:18:34.399Z,94.10
2018-05-01T06:21:02.971Z,93.60
2018-05-01T06:23:30.746Z,93.60
2018-05-01T06:25:59.336Z,93.10
2018-05-01T06:28:27.884Z,93.10
2018-05-01T06:30:55.696Z,93.00
2018-05-01T06:33:23.527Z,92.60
2018-05-01T06:35:51.319Z,92.80
2018-05-01T06:38:19.155Z,93.10
2018-05-01T06:40:46.955Z,93.50
2018-05-01T06:43:15.511Z,93.60
2018-05-01T06:45:43.324Z,93.60
2018-05-01T06:48:11.141Z,93.50
2018-05-01T06:50:39.017Z,93.40
2018-05-01T06:53:06.750Z,93.50
2018-05-01T06:55:34.568Z,93.60
2018-05-01T06:58:03.113Z,94.00
2018-05-01T07:00:30.931Z,93.90
2018-05-01T07:02:58.760Z,93.60
2018-05-01T07:05:26.551Z,93.90
2018-05-01T07:07:54.343Z,94.10
2018-05-01T07:10:22.309Z,94.50
2018-05-01T07:12:50.832Z,94.80
2018-05-01T07:15:18.643Z,94.80
2018-05-01T07:17:46.454Z,94.70
2018-05-01T07:20:14.239Z,95.00
2018-05-01T07:22:42.811Z,95.00
2018-05-01T07:25:10.600Z,95.00
2018-05-01T07:27:39.179Z,94.40
2018-05-01T07:30:07.739Z,94.80
2018-05-01T07:32:36.330Z,94.70
2018-05-01T07:35:04.137Z,94.60
2018-05-01T07:37:32.554Z,94.40
2018-05-01T07:40:00.367Z,94.10
2018-05-01T07:42:28.179Z,94.10
2018-05-01T07:44:55.979Z,93.70
2018-05-01T07:47:24.529Z,93.70
2018-05-01T07:49:52.342Z,93.60
2018-05-01T07:52:20.899Z,93.50
2018-05-01T07:54:48.712Z,93.40
2018-05-01T07:57:16.520Z,93.50
2018-05-01T07:59:44.335Z,93.60
2018-05-01T08:02:12.120Z,93.40
2018-05-01T08:04:39.945Z,93.80
2018-05-01T08:07:08.528Z,93.40
2018-05-01T08:09:37.225Z,93.20
2018-05-01T08:12:05.862Z,93.40
2018-05-01T08:14:33.635Z,93.40
2018-05-01T08:17:02.213Z,93.30
2018-05-01T08:19:29.995Z,93.30
2018-05-01T08:21:58.580Z,93.10
2018-05-01T08:24:27.155Z,93.00
2018-05-01T08:26:55.762Z,92.90
2018-05-01T08:29:24.346Z,92.90
2018-05-01T08:31:52.158Z,92.90
2018-05-01T08:34:19.975Z,92.30
2018-05-01T08:36:47.909Z,92.30
2018-05-01T08:39:15.719Z,91.60
2018-05-01T08:41:43.536Z,91.60
2018-05-01T08:44:11.421Z,92.10
2018-05-01T08:46:39.288Z,91.80
2018-05-01T08:49:07.887Z,92.10
2018-05-01T08:51:35.684Z,92.10
2018-05-01T08:54:03.459Z,92.20
2018-05-01T08:56:31.295Z,92.60
2018-05-01T08:58:59.680Z,92.50
2018-05-01T09:01:27.502Z,92.10
2018-05-01T09:03:55.320Z,92.20
2018-05-01T09:06:23.150Z,91.70
2018-05-01T09:08:51.689Z,91.50
2018-05-01T09:11:19.499Z,91.50
2018-05-01T09:13:47.271Z,91.20
2018-05-01T09:16:15.836Z,91.40
2018-05-01T09:18:43.614Z,91.30
2018-05-01T09:21:12.183Z,91.50
2018-05-01T09:23:39.996Z,91.40
2018-05-01T09:26:07.799Z,91.50
2018-05-01T09:28:36.457Z,91.90
2018-05-01T09:31:04.251Z,92.00
2018-05-01T09:33:32.122Z,92.30
2018-05-01T09:35:59.903Z,92.00
2018-05-01T09:38:28.474Z,91.30
2018-05-01T09:40:56.275Z,91.30
2018-05-01T09:43:24.842Z,90.60
2018-05-01T09:45:52.643Z,90.60
2018-05-01T09:48:20.441Z,90.40
2018-05-01T09:50:48.254Z,90.20
2018-05-01T09:53:16.697Z,88.90
2018-05-01T09:55:44.979Z,89.50
2018-05-01T09:58:14.824Z,88.00
2018-05-01T10:00:43.099Z,87.90
2018-05-01T10:03:11.411Z,88.00
2018-05-01T10:05:39.693Z,88.30
2018-05-01T10:08:08.004Z,88.20
2018-05-01T10:10:36.300Z,89.30
2018-05-01T10:13:04.610Z,88.80
2018-05-01T10:15:32.913Z,89.20
2018-05-01T10:18:01.316Z,88.60
2018-05-01T10:20:30.397Z,89.20
2018-05-01T10:22:58.681Z,89.20
2018-05-01T10:25:27.726Z,88.50
2018-05-01T10:27:56.024Z,88.30
2018-05-01T10:30:25.275Z,89.60
2018-05-01T10:32:54.329Z,89.80
2018-05-01T10:35:22.643Z,89.70
2018-05-01T10:37:51.090Z,89.20
2018-05-01T10:40:20.872Z,87.20
2018-05-01T10:42:49.207Z,87.10
2018-05-01T10:45:17.518Z,87.30
2018-05-01T10:47:45.835Z,87.80
2018-05-01T10:50:14.158Z,88.90
2018-05-01T10:52:42.459Z,89.70
2018-05-01T10:55:10.857Z,90.10
2018-05-01T10:57:39.828Z,90.80
2018-05-01T11:00:08.124Z,90.40
2018-05-01T11:02:36.542Z,90.20
2018-05-01T11:05:04.845Z,90.30
2018-05-01T11:07:33.337Z,90.30
2018-05-01T11:10:01.874Z,90.30
2018-05-01T11:12:30.927Z,90.60
2018-05-01T11:14:59.241Z,90.50
2018-05-01T11:17:28.424Z,90.40
2018-05-01T11:19:56.706Z,90.30
2018-05-01T11:22:25.816Z,90.30
2018-05-01T11:24:54.894Z,90.30
2018-05-01T11:27:23.955Z,90.60
2018-05-01T11:29:52.284Z,90.60
2018-05-01T11:32:21.320Z,90.20
2018-05-01T11:34:49.689Z,90.20
2018-05-01T11:37:17.980Z,90.60
2018-05-01T11:39:47.076Z,90.20
2018-05-01T11:42:15.399Z,90.10
2018-05-01T11:44:43.675Z,90.30
2018-05-01T11:47:12.811Z,87.60
2018-05-01T11:49:41.149Z,87.50
2018-05-01T11:52:09.448Z,87.30
2018-05-01T11:54:37.778Z,86.50
2018-05-01T11:57:06.104Z,85.30
2018-05-01T11:59:34.404Z,83.00
2018-05-01T12:02:02.730Z,83.10
2018-05-01T12:04:31.826Z,82.00
2018-05-01T12:07:00.938Z,81.40
2018-05-01T12:09:29.224Z,81.40
2018-05-01T12:11:57.531Z,81.30
2018-05-01T12:14:25.825Z,83.20
2018-05-01T12:16:54.155Z,82.00
2018-05-01T12:19:22.439Z,80.70
2018-05-01T12:21:50.746Z,79.50
2018-05-01T12:24:19.069Z,80.40
2018-05-01T12:26:48.221Z,79.80
2018-05-01T12:29:16.513Z,79.80
2018-05-01T12:31:44.898Z,79.80
2018-05-01T12:34:13.154Z,81.00
2018-05-01T12:36:42.121Z,80.10
2018-05-01T12:39:10.354Z,74.80
2018-05-01T12:41:38.614Z,74.30
2018-05-01T12:44:06.884Z,72.00
2018-05-01T12:46:35.288Z,68.10
2018-05-01T12:49:03.572Z,66.40
2018-05-01T12:51:31.879Z,66.90
2018-05-01T12:54:00.144Z,67.60
2018-05-01T12:56:28.451Z,68.10
2018-05-01T12:58:56.761Z,68.40
2018-05-01T13:01:25.033Z,68.40
2018-05-01T13:03:54.897Z,64.20
2018-05-01T13:06:23.186Z,64.00
2018-05-01T13:08:51.486Z,65.30
2018-05-01T13:11:20.243Z,64.90
2018-05-01T13:13:48.529Z,65.40
2018-05-01T13:16:16.826Z,63.10
2018-05-01T13:18:45.134Z,63.80
2018-05-01T13:21:13.414Z,63.60
2018-05-01T13:23:41.667Z,63.60
2018-05-01T13:26:09.975Z,64.50
2018-05-01T13:28:38.280Z,63.90
2018-05-01T13:31:06.571Z,63.40
2018-05-01T13:33:34.884Z,61.70
2018-05-01T13:36:03.948Z,63.20
2018-05-01T13:38:32.231Z,63.20
2018-05-01T13:41:00.544Z,64.90
2018-05-01T13:43:29.588Z,62.70
2018-05-01T13:45:57.888Z,62.50
2018-05-01T13:48:26.200Z,62.10
2018-05-01T13:50:55.239Z,61.40
2018-05-01T13:53:23.556Z,61.30
2018-05-01T13:55:52.627Z,62.60
2018-05-01T13:58:21.715Z,62.00
2018-05-01T14:00:50.099Z,61.90
2018-05-01T14:03:18.395Z,65.20
2018-05-01T14:05:47.576Z,64.40
2018-05-01T14:08:15.845Z,64.30
2018-05-01T14:10:44.135Z,63.40
2018-05-01T14:13:12.507Z,64.90
2018-05-01T14:15:41.872Z,62.40
2018-05-01T14:18:10.175Z,63.10
2018-05-01T14:20:38.568Z,61.50
2018-05-01T14:23:06.836Z,61.10
2018-05-01T14:25:35.153Z,61.20
2018-05-01T14:28:03.399Z,61.70
2018-05-01T14:30:31.680Z,61.50
2018-05-01T14:33:00.755Z,60.80
2018-05-01T14:35:29.050Z,60.80
2018-05-01T14:37:58.143Z,61.40
2018-05-01T14:40:26.415Z,61.40
2018-05-01T14:42:55.486Z,59.90
2018-05-01T14:45:23.776Z,59.80
2018-05-01T14:47:52.046Z,60.90
2018-05-01T14:50:20.328Z,60.20
2018-05-01T14:52:48.620Z,59.10
2018-05-01T14:55:17.697Z,59.20
2018-05-01T14:57:45.990Z,59.20
2018-05-01T15:00:14.287Z,59.60
2018-05-01T15:02:55.067Z,59.10
2018-05-01T15:05:24.107Z,58.90
2018-05-01T15:07:52.388Z,58.80
2018-05-01T15:10:20.678Z,59.20
2018-05-01T15:12:48.981Z,58.90
2018-05-01T15:15:18.023Z,62.50
2018-05-01T15:17:46.353Z,63.10
2018-05-01T15:20:15.421Z,59.50
2018-05-01T15:22:43.728Z,59.50
2018-05-01T15:25:12.031Z,58.90
2018-05-01T15:27:40.356Z,59.50
2018-05-01T15:30:09.501Z,61.70
2018-05-01T15:32:37.803Z,61.40
2018-05-01T15:35:06.085Z,60.20
2018-05-01T15:37:35.994Z,58.60
2018-05-01T15:40:04.273Z,58.60
2018-05-01T15:42:32.571Z,57.60
2018-05-01T15:45:01.657Z,57.90
2018-05-01T15:47:29.931Z,57.90
2018-05-01T15:49:58.230Z,58.60
2018-05-01T15:52:27.281Z,57.60
2018-05-01T15:54:55.565Z,57.50
2018-05-01T15:57:23.860Z,55.90
2018-05-01T15:59:53.712Z,56.50
2018-05-01T16:02:22.012Z,56.40
2018-05-01T16:04:50.299Z,55.30
2018-05-01T16:07:18.639Z,52.40
2018-05-01T16:09:47.692Z,51.60
2018-05-01T16:12:15.964Z,51.50
2018-05-01T16:14:44.247Z,48.30
2018-05-01T16:17:12.532Z,47.70
2018-05-01T16:19:40.792Z,46.40
2018-05-01T16:22:09.764Z,46.00
2018-05-01T16:24:38.091Z,45.10
2018-05-01T16:27:06.361Z,45.60
2018-05-01T16:29:34.628Z,45.70
2018-05-01T16:32:03.691Z,45.70
2018-05-01T16:34:31.989Z,44.10
2018-05-01T16:37:00.280Z,43.60
2018-05-01T16:39:28.583Z,42.20
2018-05-01T16:41:56.895Z,41.60
2018-05-01T16:44:25.189Z,41.70
2018-05-01T16:46:54.978Z,42.90
2018-05-01T16:49:23.271Z,42.80
2018-05-01T16:51:51.548Z,43.20
2018-05-01T16:54:19.843Z,43.40
2018-05-01T16:56:48.152Z,43.30
2018-05-01T16:59:16.400Z,43.00
2018-05-01T17:01:45.494Z,42.40
2018-05-01T17:04:13.771Z,42.30
2018-05-01T17:06:42.867Z,42.10
2018-05-01T17:09:11.245Z,43.20
2018-05-01T17:11:39.524Z,42.20
2018-05-01T17:14:07.779Z,42.90
2018-05-01T17:16:36.080Z,44.00
2018-05-01T17:19:05.172Z,42.80
2018-05-01T17:21:34.367Z,43.80
2018-05-01T17:24:03.441Z,46.70
2018-05-01T17:26:31.743Z,46.20
2018-05-01T17:29:00.056Z,46.10
2018-05-01T17:31:28.336Z,47.90
2018-05-01T17:33:56.638Z,48.10
2018-05-01T17:36:25.044Z,49.60
2018-05-01T17:38:54.106Z,49.70
2018-05-01T17:41:22.372Z,49.60
2018-05-01T17:43:50.763Z,50.30
2018-05-01T17:46:19.112Z,50.00
2018-05-01T17:48:47.417Z,50.90
2018-05-01T17:51:15.731Z,52.10
2018-05-01T17:53:44.805Z,52.40
2018-05-01T17:56:13.115Z,52.20
2018-05-01T17:58:42.184Z,53.70
2018-05-01T18:01:10.483Z,53.70
2018-05-01T18:03:39.858Z,53.70
2018-05-01T18:06:08.939Z,53.70
2018-05-01T18:08:37.220Z,53.50
2018-05-01T18:11:05.528Z,53.90
2018-05-01T18:13:34.607Z,54.70
2018-05-01T18:16:03.571Z,54.70
2018-05-01T18:18:31.871Z,54.90
2018-05-01T18:21:00.753Z,54.80
2018-05-01T18:23:29.044Z,55.10
2018-05-01T18:25:57.385Z,55.70
2018-05-01T18:28:25.690Z,56.00
2018-05-01T18:30:53.991Z,56.10
2018-05-01T18:33:22.303Z,56.50
2018-05-01T18:35:51.293Z,56.70
2018-05-01T18:38:19.583Z,57.40
2018-05-01T18:40:47.880Z,57.50
2018-05-01T18:43:16.215Z,58.30
2018-05-01T18:45:45.266Z,59.00
2018-05-01T18:48:13.540Z,58.90
2018-05-01T18:50:41.848Z,59.20
2018-05-01T18:53:10.060Z,59.50
2018-05-01T18:55:39.483Z,60.00
2018-05-01T18:58:07.778Z,60.40
2018-05-01T19:00:36.088Z,61.10
2018-05-01T19:03:05.139Z,62.30
2018-05-01T19:05:33.440Z,62.20
2018-05-01T19:08:01.960Z,62.80
2018-05-01T19:10:30.311Z,63.50
2018-05-01T19:12:58.560Z,64.80
2018-05-01T19:15:26.906Z,65.50
2018-05-01T19:17:56.071Z,67.20
2018-05-01T19:20:24.397Z,67.00
2018-05-01T19:22:52.679Z,68.00
2018-05-01T19:25:20.951Z,68.70
2018-05-01T19:27:49.261Z,69.70
2018-05-01T19:30:18.348Z,71.90
2018-05-01T19:32:46.635Z,71.70
2018-05-01T19:35:14.930Z,72.90
2018-05-01T19:37:44.067Z,74.20
2018-05-01T19:40:12.380Z,75.20
2018-05-01T19:42:40.676Z,76.60
2018-05-01T19:45:08.969Z,77.40
2018-05-01T19:47:38.007Z,80.60
2018-05-01T19:50:06.323Z,80.50
2018-05-01T19:52:35.380Z,82.30
2018-05-01T19:55:03.640Z,82.20
2018-05-01T19:57:31.940Z,83.00
2018-05-01T20:00:00.220Z,85.50
2018-05-01T20:02:29.144Z,85.60
2018-05-01T20:04:57.446Z,85.50
2018-05-01T20:07:25.735Z,86.40
2018-05-01T20:09:54.082Z,88.40
2018-05-01T20:12:23.831Z,89.20
2018-05-01T20:14:52.951Z,89.10
2018-05-01T20:17:22.013Z,90.30
2018-05-01T20:19:50.323Z,90.30
2018-05-01T20:22:19.379Z,90.80
2018-05-01T20:24:47.684Z,91.30
2018-05-01T20:27:15.983Z,91.70
2018-05-01T20:29:44.268Z,92.10
2018-05-01T20:32:12.534Z,92.50
2018-05-01T20:34:40.861Z,92.50
2018-05-01T20:37:09.156Z,92.70
2018-05-01T20:39:38.321Z,93.10
2018-05-01T20:42:06.611Z,93.00
2018-05-01T20:44:34.887Z,92.90
2018-05-01T20:47:03.175Z,93.00
2018-05-01T20:49:32.187Z,92.90
2018-05-01T20:52:01.284Z,93.70
2018-05-01T20:54:29.558Z,93.30
2018-05-01T20:56:57.852Z,93.90
2018-05-01T20:59:26.945Z,93.60
2018-05-01T21:01:55.227Z,93.60
2018-05-01T21:04:23.540Z,94.10
2018-05-01T21:06:51.807Z,94.10
2018-05-01T21:09:20.870Z,94.60
2018-05-01T21:11:49.723Z,94.50
2018-05-01T21:14:18.032Z,94.70
2018-05-01T21:16:47.088Z,95.20
2018-05-01T21:19:15.363Z,95.20
2018-05-01T21:21:43.731Z,95.50
2018-05-01T21:24:11.972Z,96.00
2018-05-01T21:26:41.045Z,96.30
2018-05-01T21:29:09.372Z,96.30
2018-05-01T21:31:37.687Z,96.40
2018-05-01T21:34:06.728Z,96.50
2018-05-01T21:36:35.016Z,96.60
2018-05-01T21:39:04.328Z,96.70
2018-05-01T21:41:32.623Z,96.90
2018-05-01T21:44:01.451Z,97.60
2018-05-01T21:46:30.499Z,98.30
2018-05-01T21:48:58.769Z,98.20
2018-05-01T21:51:27.032Z,98.50
2018-05-01T21:53:55.377Z,98.50
2018-05-01T21:56:23.631Z,98.40
2018-05-01T21:58:51.939Z,99.20
2018-05-01T22:01:20.970Z,99.90
2018-05-01T22:03:49.255Z,99.90
2018-05-01T22:06:17.592Z,99.90
2018-05-01T22:08:46.760Z,99.90
2018-05-01T22:11:15.824Z,99.90
2018-05-01T22:13:44.132Z,99.90
2018-05-01T22:16:13.068Z,99.90
2018-05-01T22:18:41.339Z,99.90
2018-05-01T22:21:09.648Z,99.90
2018-05-01T22:23:37.940Z,99.90
2018-05-01T22:26:07.014Z,99.90
2018-05-01T22:28:35.296Z,99.90
2018-05-01T22:31:03.568Z,99.90
2018-05-01T22:33:33.652Z,99.90
2018-05-01T22:36:02.671Z,99.90
2018-05-01T22:38:30.993Z,99.90
2018-05-01T22:41:00.190Z,99.90
2018-05-01T22:43:28.480Z,99.90
2018-05-01T22:45:56.871Z,99.90
2018-05-01T22:48:25.919Z,99.90
2018-05-01T22:50:55.167Z,99.90
2018-05-01T22:53:24.324Z,99.90
2018-05-01T22:55:52.607Z,99.90
2018-05-01T22:58:20.892Z,99.90
2018-05-01T23:00:49.941Z,99.90
2018-05-01T23:03:18.252Z,99.90
2018-05-01T23:05:46.527Z,99.90
2018-05-01T23:08:15.731Z,99.90
2018-05-01T23:10:44.028Z,99.90
2018-05-01T23:13:13.103Z,99.90
2018-05-01T23:15:41.370Z,99.90
2018-05-01T23:18:11.167Z,99.90
2018-05-01T23:20:39.578Z,99.90
2018-05-01T23:23:08.635Z,99.90
2018-05-01T23:25:36.925Z,99.90
2018-05-01T23:28:05.219Z,99.90
2018-05-01T23:30:33.505Z,99.90
2018-05-01T23:33:02.560Z,99.90
2018-05-01T23:35:30.861Z,99.90
2018-05-01T23:37:59.767Z,99.90
2018-05-01T23:40:28.831Z,99.90
2018-05-01T23:42:57.096Z,99.90
2018-05-01T23:45:25.381Z,99.90
2018-05-01T23:47:53.669Z,99.90
2018-05-01T23:50:22.771Z,99.90
2018-05-01T23:52:51.064Z,99.90
2018-05-01T23:55:20.115Z,99.90
2018-05-01T23:57:48.430Z,99.90
